Eko 4 — SVAR8 — position and weather

sailwx.info

Track history (hours):
 
Tides and Currents Weather Stations Pressure Air Temp Water Temp Dewpoint Dewpoint Depression Visibility Wind Speed Wind Dir Waves Ship Positions

Eko 4

Last reported at 2016-Dec-05 19:33 UTC. Time now 2016-Dec-07 16:20 UTC.
Position N 37°39' E 023°45'.

Length 88 m; draft 5.6 m.

Type: Ship (hazmat cat A). MMSI: 240912000.

Date/timePositionNaut miles runAvg speedWind from/ knotsBaromVisibWave heightAir tempDewpointWater temp
2016-Dec-05 19:33N 37°39' E 023°45'10 9.5
2016-Dec-05 18:33N 37°47' E 023°38'8 8.5
2016-Dec-05 17:33N 37°56' E 023°36'7 6.6
2016-Dec-05 16:34N 38°01' E 023°32'0 0.1
2016-Dec-05 15:18N 38°01' E 023°32'0 0.0
2016-Dec-05 14:21N 38°01' E 023°32'0 0.0
2016-Dec-05 13:30N 38°01' E 023°32'0 0.0
2016-Dec-05 12:33N 38°01' E 023°32'3 0.2
2016-Dec-04 23:24N 38°02' E 023°36'4 4.4
2016-Dec-04 22:33N 38°01' E 023°31'0 0.4
2016-Dec-04 21:31N 38°01' E 023°32'0 0.0
2016-Dec-04 20:31N 38°01' E 023°31'0 0.0
2016-Dec-04 19:31N 38°01' E 023°31'0 0.0
2016-Dec-04 18:31N 38°01' E 023°31'0 0.0
2016-Dec-04 17:31N 38°01' E 023°31'0 0.0
2016-Dec-04 16:28N 38°01' E 023°31'0 0.0
2016-Dec-04 15:28N 38°01' E 023°31'0 0.0
2016-Dec-04 14:31N 38°01' E 023°31'1 1.0
2016-Dec-04 13:33N 38°01' E 023°32'7 7.5
2016-Dec-04 12:33N 37°54' E 023°37'10 9.1
2016-Dec-04 11:27N 37°45' E 023°42'  
2016-Dec-01 13:31N 37°45' E 023°39'8 8.6
2016-Dec-01 12:32N 37°53' E 023°36'8 7.8
2016-Dec-01 11:33N 38°00' E 023°33'1 1.2
2016-Dec-01 10:29N 38°01' E 023°32'0 0.0
2016-Dec-01 09:29N 38°01' E 023°32'0 0.0
2016-Dec-01 08:29N 38°01' E 023°32'0 0.0
2016-Dec-01 07:29N 38°01' E 023°32'0 0.0
2016-Dec-01 06:26N 38°01' E 023°32'0 0.0
2016-Dec-01 05:20N 38°01' E 023°32'0 0.0
2016-Dec-01 04:20N 38°01' E 023°32'0 0.0
2016-Dec-01 03:32N 38°01' E 023°32'0 0.0
2016-Dec-01 00:32N 38°01' E 023°32'0 0.0
2016-Nov-30 23:29N 38°01' E 023°32'0 0.0
2016-Nov-30 22:32N 38°01' E 023°32'0 0.0
2016-Nov-30 21:26N 38°01' E 023°32'0 0.0
2016-Nov-30 20:32N 38°01' E 023°32'0 0.0
2016-Nov-30 19:32N 38°01' E 023°32'0 0.0
2016-Nov-30 18:29N 38°01' E 023°32'0 0.0
2016-Nov-30 17:29N 38°01' E 023°32'0 0.0
2016-Nov-30 16:32N 38°01' E 023°32'0 0.0
2016-Nov-30 15:29N 38°01' E 023°32'0 0.0
2016-Nov-30 13:32N 38°01' E 023°32'0 0.0
2016-Nov-30 12:17N 38°01' E 023°32'0 0.0
2016-Nov-30 11:29N 38°01' E 023°32'3 2.3
2016-Nov-30 10:19N 38°02' E 023°36'0 0.0
2016-Nov-29 22:29N 38°02' E 023°36'3 3.4
2016-Nov-29 21:31N 38°02' E 023°32'0 0.0
2016-Nov-29 20:28N 38°02' E 023°31'0 0.0
2016-Nov-29 19:31N 38°02' E 023°31'0 0.0
2016-Nov-29 18:31N 38°02' E 023°31'0 0.0
2016-Nov-29 17:25N 38°02' E 023°31'0 0.0
2016-Nov-29 16:28N 38°02' E 023°31'0 0.0
2016-Nov-29 15:31N 38°02' E 023°32'0 0.0
2016-Nov-29 14:25N 38°02' E 023°31'0 0.0
2016-Nov-29 13:31N 38°02' E 023°31'0 0.0
2016-Nov-29 12:31N 38°02' E 023°31'0 0.0
2016-Nov-29 11:31N 38°02' E 023°31'0 0.0
2016-Nov-29 10:31N 38°02' E 023°31'0 0.0
2016-Nov-29 09:31N 38°02' E 023°31'0 0.0
2016-Nov-29 08:28N 38°02' E 023°31'0 0.0
2016-Nov-29 07:28N 38°02' E 023°31'0 0.0
2016-Nov-29 06:31N 38°02' E 023°31'0 0.0
2016-Nov-29 05:31N 38°02' E 023°32'0 0.0
2016-Nov-29 04:31N 38°02' E 023°31'1 0.1
2016-Nov-28 20:16N 38°02' E 023°31'2 2.7
2016-Nov-28 19:33N 38°01' E 023°32'7 6.9
2016-Nov-28 18:33N 37°55' E 023°37'9 8.7
2016-Nov-28 17:32N 37°47' E 023°42'  
2016-Nov-26 12:31N 37°38' E 023°45'8 8.6
2016-Nov-26 11:33N 37°45' E 023°39'8 7.8
2016-Nov-26 10:33N 37°50' E 023°31'8 8.4
2016-Nov-26 09:33N 37°55' E 023°23'7 6.9
2016-Nov-26 08:33N 38°00' E 023°27'4 3.7
2016-Nov-26 07:32N 38°01' E 023°32'0 0.0
2016-Nov-26 06:30N 38°01' E 023°32'0 0.0
2016-Nov-26 05:32N 38°01' E 023°32'0 0.0
2016-Nov-26 04:29N 38°01' E 023°32'0 0.0
2016-Nov-26 03:32N 38°01' E 023°32'0 0.0
2016-Nov-26 02:33N 38°01' E 023°32'0 0.0
2016-Nov-26 01:29N 38°01' E 023°32'0 0.0
2016-Nov-26 00:32N 38°01' E 023°32'0 0.0
2016-Nov-25 23:33N 38°01' E 023°32'0 0.0
2016-Nov-25 22:32N 38°01' E 023°32'1 0.7
2016-Nov-25 21:33N 38°01' E 023°33'  
Track history (hours):
 
Tides and Currents Weather Stations Pressure Air Temp Water Temp Dewpoint Dewpoint Depression Visibility Wind Speed Wind Dir Waves Ship Positions

Eko 4

Last reported at 2016-Dec-05 19:33 UTC. Time now 2016-Dec-07 16:20 UTC.
Position N 37°39' E 023°45'.

Length 88 m; draft 5.6 m.

Type: Ship (hazmat cat A). MMSI: 240912000.

Date/timePositionNaut miles runAvg speedWind from/ knotsBaromVisibWave heightAir tempDewpointWater temp
2016-Dec-05 19:33N 37°39' E 023°45'10 9.5
2016-Dec-05 18:33N 37°47' E 023°38'8 8.5
2016-Dec-05 17:33N 37°56' E 023°36'7 6.6
2016-Dec-05 16:34N 38°01' E 023°32'0 0.1
2016-Dec-05 15:18N 38°01' E 023°32'0 0.0
2016-Dec-05 14:21N 38°01' E 023°32'0 0.0
2016-Dec-05 13:30N 38°01' E 023°32'0 0.0
2016-Dec-05 12:33N 38°01' E 023°32'3 0.2
2016-Dec-04 23:24N 38°02' E 023°36'4 4.4
2016-Dec-04 22:33N 38°01' E 023°31'0 0.4
2016-Dec-04 21:31N 38°01' E 023°32'0 0.0
2016-Dec-04 20:31N 38°01' E 023°31'0 0.0
2016-Dec-04 19:31N 38°01' E 023°31'0 0.0
2016-Dec-04 18:31N 38°01' E 023°31'0 0.0
2016-Dec-04 17:31N 38°01' E 023°31'0 0.0
2016-Dec-04 16:28N 38°01' E 023°31'0 0.0
2016-Dec-04 15:28N 38°01' E 023°31'0 0.0
2016-Dec-04 14:31N 38°01' E 023°31'1 1.0
2016-Dec-04 13:33N 38°01' E 023°32'7 7.5
2016-Dec-04 12:33N 37°54' E 023°37'10 9.1
2016-Dec-04 11:27N 37°45' E 023°42'  
2016-Dec-01 13:31N 37°45' E 023°39'8 8.6
2016-Dec-01 12:32N 37°53' E 023°36'8 7.8
2016-Dec-01 11:33N 38°00' E 023°33'1 1.2
2016-Dec-01 10:29N 38°01' E 023°32'0 0.0
2016-Dec-01 09:29N 38°01' E 023°32'0 0.0
2016-Dec-01 08:29N 38°01' E 023°32'0 0.0
2016-Dec-01 07:29N 38°01' E 023°32'0 0.0
2016-Dec-01 06:26N 38°01' E 023°32'0 0.0
2016-Dec-01 05:20N 38°01' E 023°32'0 0.0
2016-Dec-01 04:20N 38°01' E 023°32'0 0.0
2016-Dec-01 03:32N 38°01' E 023°32'0 0.0
2016-Dec-01 00:32N 38°01' E 023°32'0 0.0
2016-Nov-30 23:29N 38°01' E 023°32'0 0.0
2016-Nov-30 22:32N 38°01' E 023°32'0 0.0
2016-Nov-30 21:26N 38°01' E 023°32'0 0.0
2016-Nov-30 20:32N 38°01' E 023°32'0 0.0
2016-Nov-30 19:32N 38°01' E 023°32'0 0.0
2016-Nov-30 18:29N 38°01' E 023°32'0 0.0
2016-Nov-30 17:29N 38°01' E 023°32'0 0.0
2016-Nov-30 16:32N 38°01' E 023°32'0 0.0
2016-Nov-30 15:29N 38°01' E 023°32'0 0.0
2016-Nov-30 13:32N 38°01' E 023°32'0 0.0
2016-Nov-30 12:17N 38°01' E 023°32'0 0.0
2016-Nov-30 11:29N 38°01' E 023°32'3 2.3
2016-Nov-30 10:19N 38°02' E 023°36'0 0.0
2016-Nov-29 22:29N 38°02' E 023°36'3 3.4
2016-Nov-29 21:31N 38°02' E 023°32'0 0.0
2016-Nov-29 20:28N 38°02' E 023°31'0 0.0
2016-Nov-29 19:31N 38°02' E 023°31'0 0.0
2016-Nov-29 18:31N 38°02' E 023°31'0 0.0
2016-Nov-29 17:25N 38°02' E 023°31'0 0.0
2016-Nov-29 16:28N 38°02' E 023°31'0 0.0
2016-Nov-29 15:31N 38°02' E 023°32'0 0.0
2016-Nov-29 14:25N 38°02' E 023°31'0 0.0
2016-Nov-29 13:31N 38°02' E 023°31'0 0.0
2016-Nov-29 12:31N 38°02' E 023°31'0 0.0
2016-Nov-29 11:31N 38°02' E 023°31'0 0.0
2016-Nov-29 10:31N 38°02' E 023°31'0 0.0
2016-Nov-29 09:31N 38°02' E 023°31'0 0.0
2016-Nov-29 08:28N 38°02' E 023°31'0 0.0
2016-Nov-29 07:28N 38°02' E 023°31'0 0.0
2016-Nov-29 06:31N 38°02' E 023°31'0 0.0
2016-Nov-29 05:31N 38°02' E 023°32'0 0.0
2016-Nov-29 04:31N 38°02' E 023°31'1 0.1
2016-Nov-28 20:16N 38°02' E 023°31'2 2.7
2016-Nov-28 19:33N 38°01' E 023°32'7 6.9
2016-Nov-28 18:33N 37°55' E 023°37'9 8.7
2016-Nov-28 17:32N 37°47' E 023°42'  
2016-Nov-26 12:31N 37°38' E 023°45'8 8.6
2016-Nov-26 11:33N 37°45' E 023°39'8 7.8
2016-Nov-26 10:33N 37°50' E 023°31'8 8.4
2016-Nov-26 09:33N 37°55' E 023°23'7 6.9
2016-Nov-26 08:33N 38°00' E 023°27'4 3.7
2016-Nov-26 07:32N 38°01' E 023°32'0 0.0
2016-Nov-26 06:30N 38°01' E 023°32'0 0.0
2016-Nov-26 05:32N 38°01' E 023°32'0 0.0
2016-Nov-26 04:29N 38°01' E 023°32'0 0.0
2016-Nov-26 03:32N 38°01' E 023°32'0 0.0
2016-Nov-26 02:33N 38°01' E 023°32'0 0.0
2016-Nov-26 01:29N 38°01' E 023°32'0 0.0
2016-Nov-26 00:32N 38°01' E 023°32'0 0.0
2016-Nov-25 23:33N 38°01' E 023°32'0 0.0
2016-Nov-25 22:32N 38°01' E 023°32'1 0.7
2016-Nov-25 21:33N 38°01' E 023°33'  

Dump ship's entire track history